Time;durP1;ratioP1;P1;durP2;ratioP2;P2;SDS_P1;SDS_P2;PMS_P1;PMS_P2;Temp;Humidity;BMP_temperature;BMP_pressure;BME280_temperature;BME280_humidity;BME280_pressure;Samples;Min_cycle;Max_cycle;Signal;HPM_P1;HPM_P2
2023/04/13 00:00:28;;;;;;;;;8.75;7.00;;;;;12.37;50.61;100311.72;146616;569;47012;-83
2023/04/13 00:03:33;;;;;;;;;9.25;7.00;;;;;12.47;50.47;100349.34;146608;639;46010;-81
2023/04/13 00:06:37;;;;;;;;;7.25;7.25;;;;;12.48;50.68;100343.31;146615;565;46012;-82
2023/04/13 00:09:31;;;;;;;;;5.25;4.50;;;;;12.48;49.65;100348.50;146621;566;46010;-82
2023/04/13 00:12:24;;;;;;;;;11.00;7.75;;;;;12.49;50.02;100339.88;146617;563;46012;-83
2023/04/13 00:15:26;;;;;;;;;9.00;7.75;;;;;12.49;50.65;100337.28;146621;593;47010;-87
2023/04/13 00:18:19;;;;;;;;;9.00;8.00;;;;;12.48;50.80;100346.78;146616;697;46016;-82
2023/04/13 00:21:18;;;;;;;;;8.75;8.00;;;;;12.36;50.08;100343.72;146621;563;47010;-83
2023/04/13 00:24:16;;;;;;;;;8.00;6.75;;;;;12.24;49.48;100349.37;146618;609;46012;-85
2023/04/13 00:27:21;;;;;;;;;5.00;4.00;;;;;12.20;49.91;100341.38;146619;569;47010;-81
2023/04/13 00:30:18;;;;;;;;;5.25;4.25;;;;;12.15;49.91;100345.50;146613;590;47918;-78
2023/04/13 00:33:28;;;;;;;;;6.75;5.00;;;;;12.08;50.19;100351.31;146608;569;46020;-86
2023/04/13 00:36:23;;;;;;;;;7.25;6.00;;;;;10.74;51.11;100143.44;146613;585;46025;-89
2023/04/13 00:39:38;;;;;;;;;5.75;4.00;;;;;11.92;51.88;100365.41;146622;576;46020;-80
2023/04/13 00:42:45;;;;;;;;;;;;;;;;;;;;;
2023/04/13 00:45:52;;;;;;;;;5.75;5.50;;;;;11.54;53.85;100346.53;146622;638;46010;-83
2023/04/13 00:48:53;;;;;;;;;6.25;6.00;;;;;11.56;55.22;100369.13;146619;600;46016;-87
2023/04/13 00:52:10;;;;;;;;;6.50;5.00;;;;;10.70;55.41;100249.56;146622;640;46021;-87
2023/04/13 00:55:20;;;;;;;;;6.75;5.00;;;;;11.24;56.11;100369.47;146617;643;46016;-86
2023/04/13 00:58:21;;;;;;;;;8.25;6.00;;;;;11.09;55.21;100370.62;146623;573;46010;-81
2023/04/13 01:01:24;;;;;;;;;7.00;6.00;;;;;10.20;55.18;100227.47;146618;709;46016;-84
2023/04/13 01:04:32;;;;;;;;;8.00;7.25;;;;;10.89;55.40;100362.78;146608;668;47010;-91
2023/04/13 01:08:15;;;;;;;;;11.75;8.00;;;;;10.88;55.42;100368.78;146618;746;46012;-86
2023/04/13 01:12:11;;;;;;;;;8.25;8.00;;;;;10.88;55.08;100358.41;146619;565;46020;-89
2023/04/13 01:15:24;;;;;;;;;9.00;8.00;;;;;10.91;54.95;100362.03;146614;632;47012;-86
2023/04/13 01:18:38;;;;;;;;;7.50;6.50;;;;;10.93;55.23;100364.66;146622;617;46010;-83
2023/04/13 01:21:34;;;;;;;;;9.00;7.25;;;;;10.92;54.62;100366.37;146616;573;46017;-80
2023/04/13 01:25:18;;;;;;;;;7.50;6.00;;;;;10.91;53.81;100366.34;146620;611;46033;-82
2023/04/13 01:28:34;;;;;;;;;8.00;7.75;;;;;10.86;53.82;100355.72;146616;564;46012;-82
2023/04/13 01:31:40;;;;;;;;;9.25;8.00;;;;;10.93;54.55;100375.03;146619;583;46021;-82
2023/04/13 01:34:44;;;;;;;;;6.25;6.25;;;;;10.99;54.03;100375.31;146615;586;47915;-81
2023/04/13 01:37:46;;;;;;;;;8.50;7.50;;;;;10.99;54.50;100381.38;146611;569;46011;-83
2023/04/13 01:40:58;;;;;;;;;8.75;6.00;;;;;10.34;53.70;100273.97;146609;590;46016;-84
2023/04/13 01:43:57;;;;;;;;;8.00;7.50;;;;;10.92;55.27;100378.47;146614;592;46020;-84
2023/04/13 01:47:00;;;;;;;;;10.50;8.75;;;;;10.81;55.24;100386.66;146614;608;46032;-82
2023/04/13 01:50:44;;;;;;;;;;;;;;;;;;;;;
2023/04/13 01:54:13;;;;;;;;;8.00;6.50;;;;;8.98;55.79;100110.59;146613;678;46017;-83
2023/04/13 01:57:29;;;;;;;;;8.50;7.75;;;;;8.89;55.52;100111.84;146615;598;46010;-83
2023/04/13 02:00:25;;;;;;;;;7.75;6.50;;;;;10.38;56.66;100384.72;146611;573;46012;-84
2023/04/13 02:03:42;;;;;;;;;11.75;8.50;;;;;10.39;56.88;100383.88;146614;613;46020;-81
2023/04/13 02:06:44;;;;;;;;;9.00;6.75;;;;;10.35;56.73;100384.56;146610;570;46017;-78
2023/04/13 02:09:44;;;;;;;;;7.00;7.00;;;;;10.29;56.28;100389.47;146610;606;46020;-81
2023/04/13 02:12:53;;;;;;;;;5.00;4.50;;;;;10.19;56.17;100374.28;146612;621;46034;-80
2023/04/13 02:16:39;;;;;;;;;;;;;;;;;;;;;
2023/04/13 02:19:58;;;;;;;;;9.25;5.50;;;;;10.21;55.93;100403.72;146609;628;47012;-80
2023/04/13 02:22:53;;;;;;;;;8.00;5.75;;;;;10.18;56.22;100399.28;146615;683;47010;-79
2023/04/13 02:26:02;;;;;;;;;6.25;6.25;;;;;10.19;55.36;100395.00;146610;602;47014;-80
2023/04/13 02:29:05;;;;;;;;;6.75;5.75;;;;;10.24;56.10;100398.69;146615;631;46020;-78
2023/04/13 02:32:07;;;;;;;;;9.25;5.75;;;;;10.31;56.53;100397.28;146612;614;46016;-78
2023/04/13 02:35:14;;;;;;;;;6.75;5.00;;;;;10.27;57.41;100398.84;146615;581;46020;-78
2023/04/13 02:38:18;;;;;;;;;7.00;5.00;;;;;10.10;57.01;100397.16;146609;577;46016;-77
2023/04/13 02:41:21;;;;;;;;;7.50;6.75;;;;;9.93;57.46;100398.91;146606;645;46020;-78
2023/04/13 02:44:31;;;;;;;;;5.75;5.00;;;;;9.83;57.46;100397.59;146612;594;46013;-77
2023/04/13 02:47:25;;;;;;;;;4.75;4.75;;;;;9.82;57.99;100401.00;146615;593;46020;-73
2023/04/13 02:50:27;;;;;;;;;5.75;5.25;;;;;9.79;57.55;100402.56;146613;597;46017;-74
2023/04/13 02:53:23;;;;;;;;;6.25;6.25;;;;;9.75;57.19;100413.56;146616;592;46020;-75
2023/04/13 02:56:27;;;;;;;;;6.25;5.25;;;;;9.73;56.75;100410.03;146612;581;46012;-75
2023/04/13 02:59:33;;;;;;;;;7.75;4.75;;;;;9.71;57.27;100415.09;146616;604;46021;-76
2023/04/13 03:02:45;;;;;;;;;4.00;4.00;;;;;9.66;57.14;100411.41;146612;615;46014;-78
2023/04/13 03:05:51;;;;;;;;;4.00;3.50;;;;;9.64;56.37;100418.22;146616;582;46010;-76
2023/04/13 03:08:46;;;;;;;;;6.00;5.25;;;;;9.66;56.31;100419.19;146614;672;46012;-75
2023/04/13 03:11:50;;;;;;;;;4.00;4.00;;;;;9.70;57.34;100413.34;146609;606;47010;-77
2023/04/13 03:14:54;;;;;;;;;6.00;4.00;;;;;9.69;57.64;100416.75;146611;675;46036;-75
2023/04/13 03:17:46;;;;;;;;;5.00;3.00;;;;;9.73;57.76;100421.25;146613;661;47010;-75
2023/04/13 03:21:02;;;;;;;;;4.00;2.75;;;;;8.08;56.90;100126.75;146613;687;47016;-78
2023/04/13 03:24:14;;;;;;;;;;;;;;;;;;;;;
2023/04/13 03:27:21;;;;;;;;;4.50;3.75;;;;;9.85;56.61;100421.88;146612;564;46013;-77
2023/04/13 03:30:28;;;;;;;;;4.75;4.25;;;;;9.90;56.01;100427.25;146613;572;47010;-77
2023/04/13 03:33:31;;;;;;;;;5.50;2.50;;;;;9.96;55.57;100427.56;146612;609;46014;-78
2023/04/13 03:36:37;;;;;;;;;4.00;4.00;;;;;10.00;55.21;100436.34;146617;669;46020;-78
2023/04/13 03:39:30;;;;;;;;;5.50;3.50;;;;;8.81;55.16;100221.75;146613;597;46016;-76
2023/04/13 03:42:25;;;;;;;;;4.00;3.00;;;;;10.08;55.28;100438.50;146605;653;46020;-76
2023/04/13 03:45:20;;;;;;;;;6.00;4.25;;;;;10.04;54.66;100427.94;146610;656;46916;-75
2023/04/13 03:48:19;;;;;;;;;5.50;3.75;;;;;10.13;54.69;100442.22;146618;629;46010;-74
2023/04/13 03:51:18;;;;;;;;;6.00;6.00;;;;;10.05;55.13;100429.72;146610;574;46017;-75
2023/04/13 03:54:11;;;;;;;;;7.25;5.50;;;;;10.14;55.19;100450.87;146618;566;46020;-79
2023/04/13 03:57:06;;;;;;;;;6.75;5.00;;;;;10.12;55.46;100449.91;146610;639;46014;-88
2023/04/13 04:00:10;;;;;;;;;7.00;6.00;;;;;10.09;55.45;100458.44;146615;599;47010;-87
2023/04/13 04:03:18;;;;;;;;;4.00;4.00;;;;;10.09;55.27;100462.72;146613;590;46033;-84
2023/04/13 04:06:26;;;;;;;;;8.00;6.75;;;;;7.34;55.59;99974.97;146618;584;46020;-88
2023/04/13 04:09:38;;;;;;;;;6.00;5.50;;;;;10.15;55.92;100465.59;146611;600;46016;-88
2023/04/13 04:12:40;;;;;;;;;5.50;5.50;;;;;10.16;56.51;100470.00;146607;564;46021;-83
2023/04/13 04:15:41;;;;;;;;;6.50;4.75;;;;;10.16;56.47;100465.69;146609;656;46016;-82
2023/04/13 04:18:54;;;;;;;;;6.00;5.75;;;;;10.11;57.10;100467.16;146616;597;47010;-83
2023/04/13 04:22:02;;;;;;;;;5.25;4.25;;;;;8.45;56.65;100208.75;146612;582;46016;-82
2023/04/13 04:25:22;;;;;;;;;6.50;6.50;;;;;9.96;57.24;100479.34;146615;600;46020;-82
2023/04/13 04:28:30;;;;;;;;;;;;;;;;;;;;;
2023/04/13 04:31:35;;;;;;;;;7.75;7.75;;;;;9.95;57.72;100488.84;146614;577;46022;-80
2023/04/13 04:34:31;;;;;;;;;6.00;6.00;;;;;9.97;57.51;100483.75;146611;670;46916;-81
2023/04/13 04:37:24;;;;;;;;;5.75;5.75;;;;;10.05;57.61;100481.53;146616;602;46010;-89
2023/04/13 04:40:34;;;;;;;;;5.50;5.50;;;;;10.14;57.78;100488.03;146612;665;46918;-89
2023/04/13 04:43:31;;;;;;;;;4.00;4.00;;;;;10.43;61.98;100487.69;146609;604;46020;-90
2023/04/13 04:46:26;;;;;;;;;9.00;6.25;;;;;11.01;57.84;100475.75;146609;602;48012;-83
2023/04/13 04:49:27;;;;;;;;;4.50;3.75;;;;;11.72;55.77;100497.03;146616;581;47011;-86
2023/04/13 04:52:34;;;;;;;;;4.00;4.00;;;;;12.19;54.83;100491.25;146613;589;46016;-86
2023/04/13 04:55:34;;;;;;;;;4.00;4.00;;;;;12.52;53.55;100505.56;146618;588;46029;-86
2023/04/13 04:58:46;;;;;;;;;6.50;5.25;;;;;12.78;52.76;100506.59;146610;569;47012;-84
2023/04/13 05:01:51;;;;;;;;;6.00;4.25;;;;;13.04;53.90;100512.78;146702;570;46023;-84
2023/04/13 05:04:55;;;;;;;;;7.00;6.75;;;;;13.29;52.96;100497.28;146619;595;46012;-84
2023/04/13 05:07:53;;;;;;;;;3.75;3.50;;;;;13.55;52.64;100505.13;146625;612;46010;-83
2023/04/13 05:11:11;;;;;;;;;7.50;6.25;;;;;13.81;52.30;100506.06;146619;573;46918;-84
2023/04/13 05:14:17;;;;;;;;;;;;;;;;;;;;;
2023/04/13 05:17:24;;;;;;;;;19.00;16.50;;;;;14.31;50.48;100507.75;146617;648;46017;-82
2023/04/13 05:20:35;;;;;;;;;21.50;15.00;;;;;14.49;48.98;100517.03;146621;580;46020;-84
2023/04/13 05:23:34;;;;;;;;;13.50;13.25;;;;;14.64;49.26;100520.16;146615;581;46033;-84
2023/04/13 05:26:40;;;;;;;;;16.25;12.75;;;;;14.83;48.18;100511.16;146617;578;45050;-86
2023/04/13 05:29:34;;;;;;;;;19.75;16.25;;;;;15.04;46.38;100517.84;146616;579;46016;-85
2023/04/13 05:32:26;;;;;;;;;16.50;14.25;;;;;15.19;46.45;100510.47;146620;606;46010;-83
2023/04/13 05:35:18;;;;;;;;;14.75;14.50;;;;;15.30;45.58;100513.41;146617;658;46012;-85
2023/04/13 05:38:10;;;;;;;;;15.00;12.50;;;;;15.30;45.85;100516.03;146618;611;46011;-84
2023/04/13 05:41:10;;;;;;;;;16.25;13.25;;;;;15.24;46.69;100504.56;146615;660;46016;-81
2023/04/13 05:44:06;;;;;;;;;13.75;13.00;;;;;15.41;47.99;100520.69;146619;625;46020;-82
2023/04/13 05:47:04;;;;;;;;;9.50;7.75;;;;;15.55;47.62;100526.31;146615;608;46016;-74
2023/04/13 05:50:28;;;;;;;;;;;;;;;;;;;;;
2023/04/13 05:53:22;;;;;;;;;11.50;8.00;;;;;15.97;45.72;100533.56;146620;565;46013;-82
2023/04/13 05:56:23;;;;;;;;;9.50;8.25;;;;;16.19;45.20;100531.53;146623;678;46010;-83
2023/04/13 05:59:24;;;;;;;;;8.25;7.25;;;;;16.32;43.95;100537.12;146615;615;47016;-81
2023/04/13 06:02:42;;;;;;;;;5.75;4.50;;;;;16.51;44.14;100538.44;146622;584;46020;-84
2023/04/13 06:05:40;;;;;;;;;5.25;4.25;;;;;16.76;39.66;100539.94;146617;571;47014;-85
2023/04/13 06:08:38;;;;;;;;;5.00;4.00;;;;;16.88;40.55;100528.84;146627;602;46010;-86
2023/04/13 06:11:53;;;;;;;;;4.25;4.25;;;;;17.01;41.53;100533.53;146616;695;48012;-80
2023/04/13 06:14:48;;;;;;;;;7.00;7.00;;;;;17.26;41.90;100537.56;146623;626;45021;-84
2023/04/13 06:17:57;;;;;;;;;8.75;8.75;;;;;17.47;42.23;100538.84;146620;665;45917;-83
2023/04/13 06:21:17;;;;;;;;;6.25;5.75;;;;;17.64;41.82;100534.81;146622;684;46010;-84
2023/04/13 06:24:22;;;;;;;;;9.25;7.75;;;;;17.78;41.36;100537.72;146620;626;46014;-88
2023/04/13 06:27:34;;;;;;;;;9.25;9.25;;;;;17.90;40.18;100543.22;146623;626;46010;-81
2023/04/13 06:30:37;;;;;;;;;11.25;9.00;;;;;18.00;40.96;100541.63;146614;627;47915;-86
2023/04/13 06:33:54;;;;;;;;;10.50;8.75;;;;;18.09;40.42;100549.66;146623;628;46020;-73
2023/04/13 06:37:08;;;;;;;;;7.00;7.00;;;;;18.26;42.58;100539.50;146616;701;46012;-74
2023/04/13 06:40:20;;;;;;;;;9.00;7.25;;;;;18.46;40.31;100551.19;146622;664;46020;-76
2023/04/13 06:43:18;;;;;;;;;7.50;5.75;;;;;18.68;41.57;100547.16;146619;581;46012;-85
2023/04/13 06:46:16;;;;;;;;;6.75;6.75;;;;;18.83;40.53;100538.66;146621;584;46012;-85
2023/04/13 06:49:22;;;;;;;;;7.00;7.00;;;;;18.91;40.78;100541.41;146619;579;46016;-80
2023/04/13 06:52:28;;;;;;;;;10.25;7.00;;;;;18.99;39.81;100545.00;146622;704;46020;-79
2023/04/13 06:55:44;;;;;;;;;;;;;;;;;;;;;
2023/04/13 06:58:40;;;;;;;;;9.25;8.00;;;;;19.07;40.64;100551.28;146620;657;46020;-78
2023/04/13 07:01:50;;;;;;;;;9.50;8.25;;;;;19.17;40.72;100541.75;146617;625;46016;-74
2023/04/13 07:04:47;;;;;;;;;5.75;5.00;;;;;19.26;39.01;100547.16;146619;571;46010;-78
2023/04/13 07:08:04;;;;;;;;;9.50;7.00;;;;;19.32;39.10;100541.97;146616;594;46023;-79
2023/04/13 07:11:13;;;;;;;;;5.00;3.25;;;;;19.41;41.44;100550.81;146622;581;46010;-79
2023/04/13 07:14:19;;;;;;;;;5.00;5.00;;;;;19.49;40.10;100549.16;146616;569;46016;-79
2023/04/13 07:17:23;;;;;;;;;6.50;6.00;;;;;19.54;39.43;100550.13;146622;564;46020;-78
2023/04/13 07:20:34;;;;;;;;;11.25;9.25;;;;;19.56;39.71;100551.91;146618;621;46016;-80
2023/04/13 07:23:42;;;;;;;;;6.25;5.00;;;;;19.66;39.15;100546.75;146622;662;46010;-82
2023/04/13 07:26:45;;;;;;;;;6.00;4.25;;;;;19.78;38.75;100557.44;146621;686;46012;-80
2023/04/13 07:29:43;;;;;;;;;3.50;3.25;;;;;19.82;38.45;100561.88;146623;566;46010;-74
2023/04/13 07:32:41;;;;;;;;;5.00;4.00;;;;;19.86;36.17;100554.91;146616;631;46016;-76
2023/04/13 07:35:45;;;;;;;;;7.00;5.00;;;;;19.92;37.93;100563.72;146623;669;48012;-77
2023/04/13 07:38:39;;;;;;;;;6.50;4.50;;;;;20.01;36.75;100562.94;146620;597;46012;-78
2023/04/13 07:41:51;;;;;;;;;16.00;13.00;;;;;18.76;39.54;100341.56;146619;589;46020;-78
2023/04/13 07:44:57;;;;;;;;;;;;;;;;;;;;;
2023/04/13 07:48:04;;;;;;;;;7.00;6.75;;;;;20.26;39.56;100569.34;146618;577;46020;-80
2023/04/13 07:51:10;;;;;;;;;12.50;10.75;;;;;20.40;35.65;100559.78;146620;577;46012;-79
2023/04/13 07:54:05;;;;;;;;;9.00;9.00;;;;;20.47;36.22;100566.00;146615;567;46010;-79
2023/04/13 07:57:09;;;;;;;;;11.75;9.50;;;;;20.47;34.71;100560.75;146619;609;47012;-79
2023/04/13 08:00:13;;;;;;;;;9.75;9.50;;;;;20.41;33.69;100564.22;146622;606;46021;-79
2023/04/13 08:03:14;;;;;;;;;13.75;11.50;;;;;20.28;35.26;100563.22;146614;613;47012;-80
2023/04/13 08:06:29;;;;;;;;;12.50;12.50;;;;;20.11;36.06;100559.53;146619;564;46020;-79
2023/04/13 08:09:32;;;;;;;;;19.50;17.00;;;;;20.05;37.69;100570.00;146616;598;46014;-79
2023/04/13 08:12:36;;;;;;;;;18.50;15.50;;;;;20.06;38.11;100566.50;146619;564;46020;-79
2023/04/13 08:15:36;;;;;;;;;22.75;22.00;;;;;19.20;40.17;100407.75;146612;590;46017;-80
2023/04/13 08:18:51;;;;;;;;;;;;;;;;;;;;;
2023/04/13 08:22:07;;;;;;;;;17.25;15.25;;;;;18.07;36.62;100170.06;146615;611;46013;-78
2023/04/13 08:25:17;;;;;;;;;20.00;18.00;;;;;20.23;37.71;100543.84;146618;609;46020;-78
2023/04/13 08:28:17;;;;;;;;;16.00;15.00;;;;;20.21;38.54;100542.94;146615;585;46015;-80
2023/04/13 08:31:21;;;;;;;;;18.75;16.25;;;;;19.14;40.87;100334.97;146620;569;46010;-78
2023/04/13 08:34:29;;;;;;;;;16.50;14.50;;;;;18.12;41.36;100142.16;146614;580;46014;-80
2023/04/13 08:37:38;;;;;;;;;16.50;15.00;;;;;19.16;41.30;100306.09;146618;592;47001;-80
2023/04/13 08:40:43;;;;;;;;;15.00;13.00;;;;;20.69;40.48;100541.63;146616;565;46918;-79
2023/04/13 08:43:53;;;;;;;;;15.00;12.75;;;;;20.92;40.61;100540.88;146617;585;46029;-79
2023/04/13 08:46:55;;;;;;;;;15.50;13.50;;;;;21.09;37.25;100531.34;146614;599;47024;-79
2023/04/13 08:50:15;;;;;;;;;13.25;11.00;;;;;20.00;40.54;100314.69;146618;569;47012;-79
2023/04/13 08:53:12;;;;;;;;;7.50;7.25;;;;;21.41;34.75;100528.87;146615;672;46012;-80
2023/04/13 08:56:06;;;;;;;;;7.50;6.75;;;;;21.50;34.06;100522.75;146623;679;46020;-81
2023/04/13 08:59:17;;;;;;;;;8.50;6.00;;;;;21.57;36.03;100511.34;146619;583;46917;-79
2023/04/13 09:02:24;;;;;;;;;5.50;5.50;;;;;21.66;32.83;100524.56;146622;565;46010;-78
2023/04/13 09:05:22;;;;;;;;;7.75;6.00;;;;;21.64;33.20;100523.66;146618;582;46013;-79
2023/04/13 09:08:17;;;;;;;;;7.00;7.00;;;;;21.73;34.59;100521.94;146622;636;46021;-79
2023/04/13 09:11:24;;;;;;;;;10.25;7.00;;;;;21.90;35.82;100531.66;146617;639;47012;-81
2023/04/13 09:14:22;;;;;;;;;10.75;9.00;;;;;21.82;37.68;100525.47;146622;603;46021;-81
2023/04/13 09:17:33;;;;;;;;;7.25;7.00;;;;;21.67;37.00;100526.31;146615;609;46016;-79
2023/04/13 09:20:38;;;;;;;;;8.25;7.00;;;;;21.52;38.28;100523.62;146622;640;46012;-79
2023/04/13 09:23:42;;;;;;;;;7.25;7.25;;;;;21.45;39.13;100522.72;146619;724;46014;-79
2023/04/13 09:26:55;;;;;;;;;8.75;7.00;;;;;21.41;36.97;100510.41;146616;642;47030;-80
2023/04/13 09:30:07;;;;;;;;;6.75;6.75;;;;;19.16;34.87;100122.13;146620;578;46012;-80
2023/04/13 09:33:26;;;;;;;;;8.25;8.00;;;;;19.10;37.61;100106.31;146621;642;46020;-80
2023/04/13 09:36:25;;;;;;;;;5.25;4.50;;;;;21.44;35.11;100499.00;146618;584;46016;-79
2023/04/13 09:39:50;;;;;;;;;5.25;5.25;;;;;21.70;32.11;100512.25;146620;651;46020;-80
2023/04/13 09:43:13;;;;;;;;;4.00;3.67;;;;;21.87;30.65;100513.16;146618;565;46017;-82
2023/04/13 09:46:35;;;;;;;;;4.00;3.75;;;;;21.48;31.99;100442.72;146620;680;46020;-81
2023/04/13 09:50:00;;;;;;;;;5.33;3.67;;;;;21.89;31.25;100497.31;146620;611;46015;-84
2023/04/13 09:53:16;;;;;;;;;6.00;5.00;;;;;21.86;33.22;100498.19;146624;564;46020;-79
2023/04/13 09:56:16;;;;;;;;;5.00;4.00;;;;;20.82;30.86;100302.78;146620;581;47014;-82
2023/04/13 09:59:15;;;;;;;;;4.00;4.00;;;;;22.03;30.54;100494.72;146623;564;47010;-80
2023/04/13 10:02:13;;;;;;;;;8.25;5.50;;;;;22.07;30.46;100494.69;146617;705;47012;-81
2023/04/13 10:05:15;;;;;;;;;8.00;6.75;;;;;22.14;32.12;100496.44;146620;603;46021;-82
2023/04/13 10:08:21;;;;;;;;;5.33;4.67;;;;;20.64;31.88;100208.78;146619;573;46016;-81
2023/04/13 10:11:23;;;;;;;;;5.00;5.00;;;;;22.28;29.22;100488.59;146621;588;46020;-81
2023/04/13 10:14:31;;;;;;;;;4.33;3.33;;;;;22.27;30.18;100493.84;146618;622;46016;-80
2023/04/13 10:17:54;;;;;;;;;6.75;4.75;;;;;22.30;32.09;100480.63;146618;600;47010;-81
2023/04/13 10:20:55;;;;;;;;;4.50;3.50;;;;;22.56;29.71;100480.63;146619;635;46016;-80
2023/04/13 10:24:19;;;;;;;;;4.67;3.33;;;;;22.79;33.23;100472.62;146621;587;46020;-79
2023/04/13 10:27:28;;;;;;;;;4.67;4.00;;;;;22.81;29.73;100471.75;146620;625;47013;-79
2023/04/13 10:30:32;;;;;;;;;4.33;3.67;;;;;22.76;33.41;100473.53;146623;592;46030;-81
2023/04/13 10:33:32;;;;;;;;;5.00;5.00;;;;;22.78;31.68;100471.75;146618;599;46016;-81
2023/04/13 10:36:41;;;;;;;;;4.67;4.67;;;;;22.85;32.20;100467.34;146622;609;46020;-78
2023/04/13 10:39:43;;;;;;;;;7.00;5.75;;;;;22.99;31.48;100462.94;146619;641;46016;-81
2023/04/13 10:42:51;;;;;;;;;5.25;4.75;;;;;23.01;33.43;100455.84;146619;669;47010;-81
2023/04/13 10:45:54;;;;;;;;;7.00;5.50;;;;;22.99;31.30;100464.66;146620;644;46016;-81
2023/04/13 10:49:16;;;;;;;;;5.75;5.00;;;;;22.97;32.54;100450.59;146621;639;46026;-81
2023/04/13 10:52:16;;;;;;;;;4.00;4.00;;;;;22.96;33.09;100444.44;146617;629;46016;-80
2023/04/13 10:55:11;;;;;;;;;7.00;5.75;;;;;23.00;30.83;100446.16;146619;648;46020;-81
2023/04/13 10:58:06;;;;;;;;;9.00;6.75;;;;;23.04;31.98;100450.53;146617;660;47012;-81
2023/04/13 11:00:59;;;;;;;;;7.00;7.00;;;;;23.12;33.45;100441.72;146617;570;46019;-82
2023/04/13 11:03:53;;;;;;;;;7.00;5.50;;;;;23.26;32.39;100446.03;146615;612;46016;-81
2023/04/13 11:06:51;;;;;;;;;6.00;4.00;;;;;23.44;33.36;100452.12;146619;634;46020;-83
2023/04/13 11:10:01;;;;;;;;;6.00;5.33;;;;;22.29;33.24;100227.97;146620;632;46012;-80
2023/04/13 11:12:55;;;;;;;;;3.00;3.00;;;;;23.49;30.66;100451.22;146621;570;46021;-80
2023/04/13 11:15:54;;;;;;;;;3.33;3.33;;;;;23.48;31.01;100449.44;146616;569;46016;-79
2023/04/13 11:18:54;;;;;;;;;7.50;5.50;;;;;23.50;29.37;100444.16;146619;677;46020;-81
2023/04/13 11:22:09;;;;;;;;;6.00;4.00;;;;;23.48;28.66;100440.63;146619;677;46014;-79
2023/04/13 11:25:32;;;;;;;;;3.67;3.67;;;;;22.15;34.56;100225.38;146613;576;46913;-83
2023/04/13 11:28:52;;;;;;;;;6.33;5.00;;;;;23.51;28.63;100430.88;146615;581;47017;-79
2023/04/13 11:31:47;;;;;;;;;8.00;5.67;;;;;23.53;28.21;100438.84;146624;633;46010;-79
2023/04/13 11:35:38;;;;;;;;;3.67;3.67;;;;;23.61;31.46;100431.72;146619;565;46012;-79
2023/04/13 11:38:39;;;;;;;;;4.25;3.25;;;;;23.67;30.08;100430.78;146621;626;46020;-80
2023/04/13 11:41:44;;;;;;;;;4.00;4.00;;;;;23.72;30.85;100427.25;146620;635;46014;-80
2023/04/13 11:45:05;;;;;;;;;5.33;4.00;;;;;23.88;33.22;100425.38;146624;598;46010;-79
2023/04/13 11:48:17;;;;;;;;;5.67;4.00;;;;;22.73;31.58;100216.28;146618;694;47012;-80
2023/04/13 11:51:21;;;;;;;;;4.67;3.33;;;;;23.94;27.86;100411.22;146624;566;46010;-82
2023/04/13 11:54:28;;;;;;;;;4.00;4.00;;;;;23.80;28.24;100416.63;146621;582;46012;-80
2023/04/13 11:57:52;;;;;;;;;;;;;;;;;;;;;
2023/04/13 12:00:53;;;;;;;;;4.00;3.00;;;;;23.52;29.31;100400.91;146619;583;46012;-80
2023/04/13 12:04:16;;;;;;;;;4.00;4.00;;;;;23.57;30.86;100408.81;146621;609;46021;-82
2023/04/13 12:07:23;;;;;;;;;7.00;7.00;;;;;23.53;28.81;100396.50;146620;620;46014;-78
2023/04/13 12:10:39;;;;;;;;;4.00;4.00;;;;;23.47;28.39;100399.19;146621;578;46033;-77
2023/04/13 12:13:52;;;;;;;;;4.67;4.67;;;;;23.38;31.34;100386.00;146620;591;46012;-77
2023/04/13 12:16:52;;;;;;;;;3.00;2.00;;;;;23.33;28.75;100395.72;146623;643;46021;-78
2023/04/13 12:19:58;;;;;;;;;5.33;5.00;;;;;23.33;30.05;100387.78;146620;609;46012;-83
2023/04/13 12:23:01;;;;;;;;;5.33;5.00;;;;;23.27;29.96;100384.31;146620;634;46020;-78
2023/04/13 12:26:23;;;;;;;;;5.33;5.00;;;;;22.00;32.73;100160.31;146616;584;46017;-79
2023/04/13 12:29:22;;;;;;;;;3.00;2.00;;;;;23.30;29.52;100370.16;146620;575;46022;-81
2023/04/13 12:32:41;;;;;;;;;;;;;;;;;;;;;
2023/04/13 12:35:42;;;;;;;;;5.00;5.00;;;;;23.38;30.41;100365.72;146619;695;46020;-78
2023/04/13 12:38:51;;;;;;;;;6.67;5.00;;;;;23.51;33.42;100359.44;146618;581;46918;-84
2023/04/13 12:42:06;;;;;;;;;6.33;4.67;;;;;23.69;29.69;100357.59;146622;618;46012;-83
2023/04/13 12:45:11;;;;;;;;;4.67;4.67;;;;;23.76;30.17;100358.41;146618;616;47025;-82
2023/04/13 12:48:24;;;;;;;;;4.67;4.33;;;;;23.81;30.66;100360.13;146624;701;46010;-83
2023/04/13 12:51:26;;;;;;;;;5.00;4.00;;;;;23.95;30.43;100358.22;146620;564;46917;-82
2023/04/13 12:54:19;;;;;;;;;4.67;3.67;;;;;23.96;30.88;100344.09;146621;594;46020;-83
2023/04/13 12:57:31;;;;;;;;;4.67;4.67;;;;;23.85;30.80;100342.44;146621;588;46016;-83
2023/04/13 13:00:29;;;;;;;;;5.00;5.00;;;;;23.68;29.88;100343.44;146619;580;46020;-80
2023/04/13 13:03:46;;;;;;;;;3.00;3.00;;;;;21.97;30.92;100072.34;146618;605;46917;-79
2023/04/13 13:06:54;;;;;;;;;5.33;5.33;;;;;23.45;31.58;100324.22;146625;633;47010;-82
2023/04/13 13:09:49;;;;;;;;;4.33;4.33;;;;;23.34;30.54;100321.66;146616;577;46017;-81
2023/04/13 13:12:55;;;;;;;;;7.00;4.00;;;;;23.25;30.04;100324.38;146622;654;46020;-82
2023/04/13 13:16:01;;;;;;;;;5.00;4.33;;;;;23.21;33.01;100317.38;146617;594;46918;-80
2023/04/13 13:18:55;;;;;;;;;6.00;4.00;;;;;23.22;32.02;100312.03;146617;570;46021;-80
2023/04/13 13:22:23;;;;;;;;;;;;;;;;;;;;;
2023/04/13 13:25:21;;;;;;;;;5.00;4.67;;;;;23.20;31.95;100310.28;146622;609;46021;-81
2023/04/13 13:28:22;;;;;;;;;3.67;3.67;;;;;23.17;31.40;100305.03;146618;622;46016;-81
2023/04/13 13:31:24;;;;;;;;;6.33;5.33;;;;;23.17;32.86;100303.25;146620;640;46020;-81
2023/04/13 13:34:27;;;;;;;;;5.00;5.00;;;;;23.24;31.77;100290.84;146618;651;47012;-80
2023/04/13 13:37:30;;;;;;;;;4.33;4.00;;;;;23.31;32.32;100302.28;146624;580;46010;-80
2023/04/13 13:40:28;;;;;;;;;7.00;5.00;;;;;23.32;33.38;100291.69;146620;588;46013;-82
2023/04/13 13:43:24;;;;;;;;;5.00;4.00;;;;;23.32;32.87;100301.41;146620;616;46020;-81
2023/04/13 13:46:25;;;;;;;;;5.33;5.33;;;;;23.26;32.36;100292.59;146615;623;46016;-86
2023/04/13 13:49:27;;;;;;;;;4.33;4.33;;;;;23.19;32.46;100285.63;146621;667;46039;-76
2023/04/13 13:52:32;;;;;;;;;;;;;;;;;;;;;
2023/04/13 13:55:48;;;;;;;;;6.33;5.00;;;;;20.75;33.34;99885.63;146623;613;46010;-82
2023/04/13 13:58:49;;;;;;;;;5.00;4.00;;;;;23.07;32.02;100295.41;146615;597;46016;-80
2023/04/13 14:01:50;;;;;;;;;3.33;3.33;;;;;23.07;32.92;100287.47;146619;590;46020;-84
2023/04/13 14:04:46;;;;;;;;;5.00;5.00;;;;;23.00;32.56;100282.22;146614;587;47014;-85
2023/04/13 14:07:44;;;;;;;;;6.00;6.00;;;;;22.99;33.50;100280.47;146623;609;46020;-79
2023/04/13 14:10:48;;;;;;;;;4.33;4.00;;;;;22.98;33.85;100273.41;146618;622;46017;-80
2023/04/13 14:13:49;;;;;;;;;4.67;4.00;;;;;22.93;32.32;100285.78;146624;644;46010;-79
2023/04/13 14:16:46;;;;;;;;;6.50;6.50;;;;;22.89;33.81;100277.84;146619;620;46017;-80
2023/04/13 14:19:39;;;;;;;;;5.00;4.00;;;;;22.89;33.38;100278.72;146621;642;47010;-80
2023/04/13 14:22:42;;;;;;;;;;;;;;;;;;;;;
2023/04/13 14:25:39;;;;;;;;;4.00;4.00;;;;;22.87;34.51;100274.37;146623;586;46020;-82
2023/04/13 14:28:35;;;;;;;;;5.33;4.33;;;;;22.88;34.91;100278.75;146618;573;47012;-82
2023/04/13 14:31:38;;;;;;;;;6.33;5.33;;;;;22.88;35.52;100281.41;146620;589;46020;-89
2023/04/13 14:34:52;;;;;;;;;8.00;6.00;;;;;22.86;33.94;100272.59;146618;608;47012;-82
2023/04/13 14:37:52;;;;;;;;;5.00;5.00;;;;;22.85;35.22;100278.78;146619;636;46020;-86
2023/04/13 14:40:58;;;;;;;;;6.00;4.33;;;;;22.85;35.22;100274.34;146616;660;47012;-81
2023/04/13 14:43:54;;;;;;;;;6.33;5.00;;;;;22.77;36.51;100274.41;146623;588;46010;-84
2023/04/13 14:47:01;;;;;;;;;4.33;4.33;;;;;22.74;35.55;100276.16;146612;684;47915;-84